Warning: Javascript must be enabled to use all the features on this page!


Page Loading - Please Wait...

Click to hideNews Bulletins

Peak Streamflow for the Nation

USGS 03232500 Rocky Fork near Barretts Mills OH

Highland County, Ohio
Hydrologic Unit Code 05060003
Latitude  39°13'06", Longitude  83°23'08" NAD27
Drainage area 140  square miles
Contributing drainage area 140  square miles
Gage datum 770.24 feet above NAVD88
Output formats
Table
Graph
Tab-separated file
peakfq (watstore) format
Reselect output format
Water
Year
Date Gage
Height
(feet)
Stream-
flow
(cfs)
1940 1940-04-19 13.40 8,170
1941 1941-07-11 7.30 2,830
1942 1942-04-09 9.78 4,750
1943 1943-03-19 15.40 12,700
1944 1944-03-07 9.14 4,170
1945 1945-03-06 15.56 13,200
1946 1946-06-17 9.00 3,980
1947 1947-01-30 11.20 5,990
1948 1948-02-14 13.31 8,550
1949 1949-01-24 11.48 6,290
1950 1950-04-04 11.88 6,720
1951 1951-01-14 11.73 6,500
1952 1952-03-11 7.15 2,5806
1953 1953-05-22 7.83 3,0306
1954 1954-07-21 11.67 6,1506
1955 1955-03-21 7.84 2,9806
1956 1956-04-03 7.84 2,9806
1957 1957-04-04 11.37 5,8806
1958 1958-08-03 14.32 11,1006
1959 1959-01-21 11.53 6,0006
1960 1960-02-10 7.81 2,8606
1961 1961-05-08 10.75 4,9806
1962 1962-02-27 9.16 3,3806
1963 1963-03-04 12.44 7,1706
1964 1964-03-10 15.10 13,4006
1965 1965-07-23 13.37 7,0906
1966 1966-02-13 8.33 2,7506
1967 1967-05-07 6.09 1,1806
1968 1968-05-24 11.91 6,3406
1969 1969-01-29 5.90 1,0606
1970 1970-04-02 12.40 7,0406
1971 1971-02-22 10.05 4,2706
1972 1972-06-16 7.10 1,6906
1973 1972-11-14 8.72 3,0706
1974 1974-08-30 10.47 4,7206
1975 1975-02-24 9.55 3,8206
1976 1976-02-18 8.80 3,1906
1977 1977-04-03 5.42 9796
1978 1978-03-14 10.19 6,3806
1979 1979-02-25 9.67 5,6006
1980 1980-08-07 6.09 1,6806
1981 1981-04-04 6.64 2,1206
1982 1982-03-21 6.72 2,1906
1983 1983-05-03 8.95 4,6006
1984 1983-11-28 6.50 2,0006
1985 1985-03-30 6.90 2,3506
1986 1985-11-28 8.33 3,8306
1987 1986-12-02 6.12 1,7106
1988 1988-03-04 6.97 2,4106
1989 1989-04-29 8.76 4,3806
1990 1990-08-22 10.34 6,6406
1991 1990-12-18 9.48 5,3206
1992 1992-07-26 7.51 3,0106
1993 1993-03-04 6.21 1,9106
1994 1994-04-10 10.84 7,5506
1995 1995-05-18 9.01 4,0106
1996 1996-05-04 10.23 4,7606
1997 1997-03-02 12.595 7,3202,6
1998 1998-01-08 7.67 2,6706
1999 1999-01-13 6.27 1,7606
2000 2000-02-18 11.10 5,5906
2001 2001-05-18 7.55 2,5906
2002 2002-05-08 8.01 2,9206
2003 2003-05-10 7.51 2,5706
2004 2004-01-05 10.10 4,5306
2005 2005-01-06 11.05 5,5406
2006 2006-03-12 7.38 2,5206
2007 2007-03-02 7.70 2,7106
2008 2008-03-04 10.10 4,5906
2009 2009-02-11 6.44 1,9806
2010 2010-05-22 9.04 3,7306
2011 2011-05-03 10.22 4,7006
2012 2012-05-02 9.67 4,2306
2013 2013-03-18 5.35 1,3906
2014 2014-02-21 8.29 3,1206
2015 2015-03-14 7.85 2,8106
2016 2015-12-28 6.93 2,2606
2017 2017-03-01 11.95 6,4006
2018 2018-04-04 9.71 4,2606
2019 2019-02-12 10.22 4,6906
2020 2020-05-19 7.70 2,7206
?
  Peak Gage-Height Qualification Codes.
?
  Peak Streamflow Qualification Codes.